sensor_id;sensor_type;location;lat;lon;timestamp;temperature;humidity
67547;HTU21D;54381;53.516;49.424;2022-09-12T00:00:10;10.58;78.32
67547;HTU21D;54381;53.516;49.424;2022-09-12T00:02:42;10.54;78.89
67547;HTU21D;54381;53.516;49.424;2022-09-12T00:05:13;10.51;79.55
67547;HTU21D;54381;53.516;49.424;2022-09-12T00:07:45;10.46;79.21
67547;HTU21D;54381;53.516;49.424;2022-09-12T00:10:17;10.45;79.35
67547;HTU21D;54381;53.516;49.424;2022-09-12T00:12:48;10.45;79.10
67547;HTU21D;54381;53.516;49.424;2022-09-12T00:15:20;10.44;76.82
67547;HTU21D;54381;53.516;49.424;2022-09-12T00:17:51;10.46;77.95
67547;HTU21D;54381;53.516;49.424;2022-09-12T00:20:22;10.44;78.20
67547;HTU21D;54381;53.516;49.424;2022-09-12T00:22:54;10.45;77.54
67547;HTU21D;54381;53.516;49.424;2022-09-12T00:25:26;10.46;77.11
67547;HTU21D;54381;53.516;49.424;2022-09-12T00:27:57;10.46;76.66
67547;HTU21D;54381;53.516;49.424;2022-09-12T00:30:29;10.48;76.89
67547;HTU21D;54381;53.516;49.424;2022-09-12T00:33:01;10.46;77.44
67547;HTU21D;54381;53.516;49.424;2022-09-12T00:35:32;10.46;76.91
67547;HTU21D;54381;53.516;49.424;2022-09-12T00:38:03;10.43;77.33
67547;HTU21D;54381;53.516;49.424;2022-09-12T00:40:35;10.43;76.58
67547;HTU21D;54381;53.516;49.424;2022-09-12T00:48:58;10.38;77.39
67547;HTU21D;54381;53.516;49.424;2022-09-12T00:51:33;10.35;77.15
67547;HTU21D;54381;53.516;49.424;2022-09-12T00:54:10;10.37;77.69
67547;HTU21D;54381;53.516;49.424;2022-09-12T00:56:43;10.40;76.89
67547;HTU21D;54381;53.516;49.424;2022-09-12T00:59:24;10.39;75.52
67547;HTU21D;54381;53.516;49.424;2022-09-12T01:01:57;10.39;74.48
67547;HTU21D;54381;53.516;49.424;2022-09-12T01:04:29;10.42;76.13
67547;HTU21D;54381;53.516;49.424;2022-09-12T01:07:03;10.43;75.67
67547;HTU21D;54381;53.516;49.424;2022-09-12T01:09:35;10.45;75.36
67547;HTU21D;54381;53.516;49.424;2022-09-12T01:12:08;10.46;74.35
67547;HTU21D;54381;53.516;49.424;2022-09-12T01:14:40;10.45;75.20
67547;HTU21D;54381;53.516;49.424;2022-09-12T01:17:14;10.42;75.76
67547;HTU21D;54381;53.516;49.424;2022-09-12T01:40:08;10.31;76.18
67547;HTU21D;54381;53.516;49.424;2022-09-12T01:43:21;10.24;76.44
67547;HTU21D;54381;53.516;49.424;2022-09-12T01:49:21;10.19;76.70
67547;HTU21D;54381;53.516;49.424;2022-09-12T01:52:06;10.21;77.43
67547;HTU21D;54381;53.516;49.424;2022-09-12T01:54:49;10.24;76.79
67547;HTU21D;54381;53.516;49.424;2022-09-12T01:57:28;10.24;75.76
67547;HTU21D;54381;53.516;49.424;2022-09-12T02:00:04;10.27;77.10
67547;HTU21D;54381;53.516;49.424;2022-09-12T02:02:44;10.29;77.59
67547;HTU21D;54381;53.516;49.424;2022-09-12T02:05:35;10.28;77.66
67547;HTU21D;54381;53.516;49.424;2022-09-12T02:08:16;10.25;77.40
67547;HTU21D;54381;53.516;49.424;2022-09-12T02:13:36;10.23;77.21
67547;HTU21D;54381;53.516;49.424;2022-09-12T02:18:56;10.16;76.92
67547;HTU21D;54381;53.516;49.424;2022-09-12T02:21:31;10.11;77.71
67547;HTU21D;54381;53.516;49.424;2022-09-12T02:24:06;10.10;78.00
67547;HTU21D;54381;53.516;49.424;2022-09-12T02:26:54;10.10;77.61
67547;HTU21D;54381;53.516;49.424;2022-09-12T02:29:25;10.08;78.02
67547;HTU21D;54381;53.516;49.424;2022-09-12T02:32:05;10.07;78.52
67547;HTU21D;54381;53.516;49.424;2022-09-12T02:35:13;10.09;78.37
67547;HTU21D;54381;53.516;49.424;2022-09-12T02:37:59;10.13;78.11
67547;HTU21D;54381;53.516;49.424;2022-09-12T02:40:32;10.18;78.24
67547;HTU21D;54381;53.516;49.424;2022-09-12T02:43:05;10.24;78.64
67547;HTU21D;54381;53.516;49.424;2022-09-12T02:45:36;10.25;78.77
67547;HTU21D;54381;53.516;49.424;2022-09-12T02:48:12;10.24;78.39
67547;HTU21D;54381;53.516;49.424;2022-09-12T02:50:45;10.22;78.60
67547;HTU21D;54381;53.516;49.424;2022-09-12T02:53:17;10.24;79.35
67547;HTU21D;54381;53.516;49.424;2022-09-12T02:55:49;10.24;78.99
67547;HTU21D;54381;53.516;49.424;2022-09-12T02:58:25;10.22;78.78
67547;HTU21D;54381;53.516;49.424;2022-09-12T03:17:06;10.19;80.32
67547;HTU21D;54381;53.516;49.424;2022-09-12T03:22:41;10.21;79.52
67547;HTU21D;54381;53.516;49.424;2022-09-12T03:27:58;10.26;77.42
67547;HTU21D;54381;53.516;49.424;2022-09-12T03:30:35;10.23;78.72
67547;HTU21D;54381;53.516;49.424;2022-09-12T03:33:12;10.22;78.04
67547;HTU21D;54381;53.516;49.424;2022-09-12T03:35:45;10.24;77.60
67547;HTU21D;54381;53.516;49.424;2022-09-12T03:38:17;10.25;78.30
67547;HTU21D;54381;53.516;49.424;2022-09-12T03:40:49;10.27;78.34
67547;HTU21D;54381;53.516;49.424;2022-09-12T03:43:20;10.31;77.45
67547;HTU21D;54381;53.516;49.424;2022-09-12T03:45:52;10.26;76.52
67547;HTU21D;54381;53.516;49.424;2022-09-12T03:48:23;10.19;77.30
67547;HTU21D;54381;53.516;49.424;2022-09-12T03:50:59;10.19;78.18
67547;HTU21D;54381;53.516;49.424;2022-09-12T03:53:31;10.18;77.76
67547;HTU21D;54381;53.516;49.424;2022-09-12T03:56:10;10.20;77.93
67547;HTU21D;54381;53.516;49.424;2022-09-12T03:58:41;10.19;78.46
67547;HTU21D;54381;53.516;49.424;2022-09-12T04:01:15;10.21;78.66
67547;HTU21D;54381;53.516;49.424;2022-09-12T04:03:49;10.24;78.23
67547;HTU21D;54381;53.516;49.424;2022-09-12T04:06:21;10.29;78.51
67547;HTU21D;54381;53.516;49.424;2022-09-12T04:08:54;10.33;77.72
67547;HTU21D;54381;53.516;49.424;2022-09-12T04:11:25;10.33;77.56
67547;HTU21D;54381;53.516;49.424;2022-09-12T04:13:57;10.38;77.35
67547;HTU21D;54381;53.516;49.424;2022-09-12T04:16:28;10.38;75.73
67547;HTU21D;54381;53.516;49.424;2022-09-12T04:19:00;10.40;74.99
67547;HTU21D;54381;53.516;49.424;2022-09-12T04:21:31;10.41;71.76
67547;HTU21D;54381;53.516;49.424;2022-09-12T04:24:04;10.34;72.77
67547;HTU21D;54381;53.516;49.424;2022-09-12T04:26:35;10.31;71.85
67547;HTU21D;54381;53.516;49.424;2022-09-12T04:29:07;10.30;72.30
67547;HTU21D;54381;53.516;49.424;2022-09-12T04:31:41;10.33;70.70
67547;HTU21D;54381;53.516;49.424;2022-09-12T04:34:12;10.33;70.33
67547;HTU21D;54381;53.516;49.424;2022-09-12T04:36:44;10.35;70.35
67547;HTU21D;54381;53.516;49.424;2022-09-12T04:39:15;10.33;70.07
67547;HTU21D;54381;53.516;49.424;2022-09-12T04:41:47;10.31;70.21
67547;HTU21D;54381;53.516;49.424;2022-09-12T04:44:18;10.31;70.72
67547;HTU21D;54381;53.516;49.424;2022-09-12T04:46:50;10.35;70.06
67547;HTU21D;54381;53.516;49.424;2022-09-12T04:49:22;10.39;69.58
67547;HTU21D;54381;53.516;49.424;2022-09-12T04:51:54;10.48;69.55
67547;HTU21D;54381;53.516;49.424;2022-09-12T04:54:26;10.58;69.38
67547;HTU21D;54381;53.516;49.424;2022-09-12T04:56:57;10.65;69.12
67547;HTU21D;54381;53.516;49.424;2022-09-12T04:59:29;10.69;69.55
67547;HTU21D;54381;53.516;49.424;2022-09-12T05:02:01;10.67;68.75
67547;HTU21D;54381;53.516;49.424;2022-09-12T05:04:33;10.63;69.22
67547;HTU21D;54381;53.516;49.424;2022-09-12T05:07:05;10.68;68.43
67547;HTU21D;54381;53.516;49.424;2022-09-12T05:09:36;10.66;69.21
67547;HTU21D;54381;53.516;49.424;2022-09-12T05:12:08;10.68;68.06
67547;HTU21D;54381;53.516;49.424;2022-09-12T05:14:39;10.74;68.13
67547;HTU21D;54381;53.516;49.424;2022-09-12T05:17:11;10.85;68.23
67547;HTU21D;54381;53.516;49.424;2022-09-12T05:19:43;10.86;67.56
67547;HTU21D;54381;53.516;49.424;2022-09-12T05:22:14;10.98;68.23
67547;HTU21D;54381;53.516;49.424;2022-09-12T05:24:46;11.04;67.51
67547;HTU21D;54381;53.516;49.424;2022-09-12T05:27:18;10.95;68.05
67547;HTU21D;54381;53.516;49.424;2022-09-12T05:29:50;10.94;68.65
67547;HTU21D;54381;53.516;49.424;2022-09-12T05:32:21;11.11;67.97
67547;HTU21D;54381;53.516;49.424;2022-09-12T05:34:53;11.13;68.99
67547;HTU21D;54381;53.516;49.424;2022-09-12T05:37:24;11.22;66.95
67547;HTU21D;54381;53.516;49.424;2022-09-12T05:39:56;11.09;67.85
67547;HTU21D;54381;53.516;49.424;2022-09-12T05:42:29;10.89;68.18
67547;HTU21D;54381;53.516;49.424;2022-09-12T05:45:00;10.89;69.19
67547;HTU21D;54381;53.516;49.424;2022-09-12T05:47:32;10.87;68.27
67547;HTU21D;54381;53.516;49.424;2022-09-12T05:50:03;10.80;68.88
67547;HTU21D;54381;53.516;49.424;2022-09-12T05:52:40;10.78;69.17
67547;HTU21D;54381;53.516;49.424;2022-09-12T05:55:12;10.75;69.16
67547;HTU21D;54381;53.516;49.424;2022-09-12T05:57:44;10.73;69.33
67547;HTU21D;54381;53.516;49.424;2022-09-12T06:00:16;10.79;67.97
67547;HTU21D;54381;53.516;49.424;2022-09-12T06:02:52;10.88;67.95
67547;HTU21D;54381;53.516;49.424;2022-09-12T06:05:23;10.97;67.88
67547;HTU21D;54381;53.516;49.424;2022-09-12T06:07:55;11.10;66.34
67547;HTU21D;54381;53.516;49.424;2022-09-12T06:10:26;11.11;67.10
67547;HTU21D;54381;53.516;49.424;2022-09-12T06:12:58;11.23;67.56
67547;HTU21D;54381;53.516;49.424;2022-09-12T06:15:31;11.29;66.84
67547;HTU21D;54381;53.516;49.424;2022-09-12T06:18:02;11.36;67.11
67547;HTU21D;54381;53.516;49.424;2022-09-12T06:20:35;11.47;66.76
67547;HTU21D;54381;53.516;49.424;2022-09-12T06:23:07;11.69;65.88
67547;HTU21D;54381;53.516;49.424;2022-09-12T06:25:45;11.74;66.19
67547;HTU21D;54381;53.516;49.424;2022-09-12T06:28:17;11.84;66.13
67547;HTU21D;54381;53.516;49.424;2022-09-12T06:30:50;11.94;66.62
67547;HTU21D;54381;53.516;49.424;2022-09-12T06:33:21;11.94;66.61
67547;HTU21D;54381;53.516;49.424;2022-09-12T06:35:52;11.90;66.79
67547;HTU21D;54381;53.516;49.424;2022-09-12T06:38:24;12.01;66.59
67547;HTU21D;54381;53.516;49.424;2022-09-12T06:40:56;12.16;66.75
67547;HTU21D;54381;53.516;49.424;2022-09-12T06:43:28;12.20;65.73
67547;HTU21D;54381;53.516;49.424;2022-09-12T06:46:00;12.64;63.72
67547;HTU21D;54381;53.516;49.424;2022-09-12T06:48:32;12.75;63.11
67547;HTU21D;54381;53.516;49.424;2022-09-12T06:51:06;13.18;61.92
67547;HTU21D;54381;53.516;49.424;2022-09-12T06:53:41;13.39;58.25
67547;HTU21D;54381;53.516;49.424;2022-09-12T06:56:18;13.56;57.92
67547;HTU21D;54381;53.516;49.424;2022-09-12T06:58:51;13.54;57.39
67547;HTU21D;54381;53.516;49.424;2022-09-12T07:01:25;13.71;57.14
67547;HTU21D;54381;53.516;49.424;2022-09-12T07:04:01;14.27;55.32
67547;HTU21D;54381;53.516;49.424;2022-09-12T07:06:38;14.25;55.13
67547;HTU21D;54381;53.516;49.424;2022-09-12T07:09:12;14.59;52.73
67547;HTU21D;54381;53.516;49.424;2022-09-12T07:11:46;15.22;51.40
67547;HTU21D;54381;53.516;49.424;2022-09-12T07:14:18;15.67;49.25
67547;HTU21D;54381;53.516;49.424;2022-09-12T07:16:49;16.26;47.28
67547;HTU21D;54381;53.516;49.424;2022-09-12T07:19:20;16.00;46.76
67547;HTU21D;54381;53.516;49.424;2022-09-12T07:21:52;15.80;47.99
67547;HTU21D;54381;53.516;49.424;2022-09-12T07:24:23;15.93;47.47
67547;HTU21D;54381;53.516;49.424;2022-09-12T07:26:55;16.43;44.96
67547;HTU21D;54381;53.516;49.424;2022-09-12T07:29:26;16.76;44.79
67547;HTU21D;54381;53.516;49.424;2022-09-12T07:31:58;16.67;43.85
67547;HTU21D;54381;53.516;49.424;2022-09-12T07:34:31;16.21;45.61
67547;HTU21D;54381;53.516;49.424;2022-09-12T07:37:03;15.88;46.70
67547;HTU21D;54381;53.516;49.424;2022-09-12T07:39:35;15.69;47.84
67547;HTU21D;54381;53.516;49.424;2022-09-12T07:42:07;15.73;47.76
67547;HTU21D;54381;53.516;49.424;2022-09-12T07:44:39;15.54;48.90
67547;HTU21D;54381;53.516;49.424;2022-09-12T07:47:10;15.11;48.57
67547;HTU21D;54381;53.516;49.424;2022-09-12T07:49:42;14.83;48.91
67547;HTU21D;54381;53.516;49.424;2022-09-12T07:52:14;14.85;49.63
67547;HTU21D;54381;53.516;49.424;2022-09-12T07:54:45;14.99;48.82
67547;HTU21D;54381;53.516;49.424;2022-09-12T07:57:17;15.09;48.83
67547;HTU21D;54381;53.516;49.424;2022-09-12T07:59:48;15.73;44.56
67547;HTU21D;54381;53.516;49.424;2022-09-12T08:02:20;16.02;44.04
67547;HTU21D;54381;53.516;49.424;2022-09-12T08:04:51;16.39;44.11
67547;HTU21D;54381;53.516;49.424;2022-09-12T08:07:23;16.79;43.12
67547;HTU21D;54381;53.516;49.424;2022-09-12T08:09:55;16.73;43.45
67547;HTU21D;54381;53.516;49.424;2022-09-12T08:12:27;17.21;42.35
67547;HTU21D;54381;53.516;49.424;2022-09-12T08:14:59;16.76;42.70
67547;HTU21D;54381;53.516;49.424;2022-09-12T08:17:30;16.37;43.84
67547;HTU21D;54381;53.516;49.424;2022-09-12T08:20:02;16.20;44.75
67547;HTU21D;54381;53.516;49.424;2022-09-12T08:22:34;16.55;43.64
67547;HTU21D;54381;53.516;49.424;2022-09-12T08:25:06;16.56;44.21
67547;HTU21D;54381;53.516;49.424;2022-09-12T08:27:38;16.52;44.23
67547;HTU21D;54381;53.516;49.424;2022-09-12T08:30:11;16.64;43.59
67547;HTU21D;54381;53.516;49.424;2022-09-12T08:32:43;16.73;44.78
67547;HTU21D;54381;53.516;49.424;2022-09-12T08:35:14;16.37;44.86
67547;HTU21D;54381;53.516;49.424;2022-09-12T08:37:46;16.22;45.13
67547;HTU21D;54381;53.516;49.424;2022-09-12T08:40:18;16.12;45.18
67547;HTU21D;54381;53.516;49.424;2022-09-12T08:48:59;15.24;46.06
67547;HTU21D;54381;53.516;49.424;2022-09-12T08:51:33;14.93;48.56
67547;HTU21D;54381;53.516;49.424;2022-09-12T08:54:15;14.91;49.19
67547;HTU21D;54381;53.516;49.424;2022-09-12T08:56:50;15.06;47.73
67547;HTU21D;54381;53.516;49.424;2022-09-12T08:59:29;15.12;46.46
67547;HTU21D;54381;53.516;49.424;2022-09-12T09:05:22;15.16;48.86
67547;HTU21D;54381;53.516;49.424;2022-09-12T09:08:22;15.17;47.25
67547;HTU21D;54381;53.516;49.424;2022-09-12T09:10:59;14.97;47.69
67547;HTU21D;54381;53.516;49.424;2022-09-12T09:17:08;14.85;49.30
67547;HTU21D;54381;53.516;49.424;2022-09-12T09:19:47;14.80;48.52
67547;HTU21D;54381;53.516;49.424;2022-09-12T09:22:46;14.62;47.60
67547;HTU21D;54381;53.516;49.424;2022-09-12T09:25:28;14.69;49.23
67547;HTU21D;54381;53.516;49.424;2022-09-12T09:28:08;14.64;48.56
67547;HTU21D;54381;53.516;49.424;2022-09-12T09:30:42;14.77;48.10
67547;HTU21D;54381;53.516;49.424;2022-09-12T09:33:20;14.80;48.58
67547;HTU21D;54381;53.516;49.424;2022-09-12T09:36:04;14.91;48.72
67547;HTU21D;54381;53.516;49.424;2022-09-12T09:38:47;15.01;47.76
67547;HTU21D;54381;53.516;49.424;2022-09-12T09:41:40;15.17;48.33
67547;HTU21D;54381;53.516;49.424;2022-09-12T09:44:16;15.44;48.84
67547;HTU21D;54381;53.516;49.424;2022-09-12T09:46:53;15.38;46.22
67547;HTU21D;54381;53.516;49.424;2022-09-12T09:49:30;15.44;47.07
67547;HTU21D;54381;53.516;49.424;2022-09-12T09:52:05;15.67;47.25
67547;HTU21D;54381;53.516;49.424;2022-09-12T09:54:41;15.54;47.45
67547;HTU21D;54381;53.516;49.424;2022-09-12T10:00:33;15.47;47.05
67547;HTU21D;54381;53.516;49.424;2022-09-12T10:06:01;15.60;47.67
67547;HTU21D;54381;53.516;49.424;2022-09-12T10:08:35;15.52;47.30
67547;HTU21D;54381;53.516;49.424;2022-09-12T10:11:18;15.37;48.15
67547;HTU21D;54381;53.516;49.424;2022-09-12T10:16:32;15.53;48.07
67547;HTU21D;54381;53.516;49.424;2022-09-12T10:19:04;15.74;45.61
67547;HTU21D;54381;53.516;49.424;2022-09-12T10:21:50;15.96;45.45
67547;HTU21D;54381;53.516;49.424;2022-09-12T10:24:38;15.99;46.12
67547;HTU21D;54381;53.516;49.424;2022-09-12T10:29:45;15.89;46.05
67547;HTU21D;54381;53.516;49.424;2022-09-12T10:32:33;15.89;44.53
67547;HTU21D;54381;53.516;49.424;2022-09-12T10:35:28;15.89;45.80
67547;HTU21D;54381;53.516;49.424;2022-09-12T10:38:05;15.75;45.91
67547;HTU21D;54381;53.516;49.424;2022-09-12T10:40:39;15.59;46.70
67547;HTU21D;54381;53.516;49.424;2022-09-12T10:43:16;15.88;45.84
67547;HTU21D;54381;53.516;49.424;2022-09-12T10:45:48;16.14;45.96
67547;HTU21D;54381;53.516;49.424;2022-09-12T10:48:29;15.96;43.90
67547;HTU21D;54381;53.516;49.424;2022-09-12T10:51:01;15.78;44.03
67547;HTU21D;54381;53.516;49.424;2022-09-12T10:53:41;15.90;44.13
67547;HTU21D;54381;53.516;49.424;2022-09-12T10:56:22;15.87;44.66
67547;HTU21D;54381;53.516;49.424;2022-09-12T10:59:24;15.63;46.10
67547;HTU21D;54381;53.516;49.424;2022-09-12T11:13:03;15.21;46.79
67547;HTU21D;54381;53.516;49.424;2022-09-12T11:30:14;14.83;48.04
67547;HTU21D;54381;53.516;49.424;2022-09-12T11:35:52;14.70;48.16
67547;HTU21D;54381;53.516;49.424;2022-09-12T11:38:36;14.79;48.63
67547;HTU21D;54381;53.516;49.424;2022-09-12T11:41:39;14.83;48.50
67547;HTU21D;54381;53.516;49.424;2022-09-12T11:44:35;14.75;48.23
67547;HTU21D;54381;53.516;49.424;2022-09-12T11:47:11;14.92;48.63
67547;HTU21D;54381;53.516;49.424;2022-09-12T11:49:50;15.07;47.67
67547;HTU21D;54381;53.516;49.424;2022-09-12T11:52:25;15.23;48.47
67547;HTU21D;54381;53.516;49.424;2022-09-12T11:55:18;15.09;49.67
67547;HTU21D;54381;53.516;49.424;2022-09-12T11:57:54;15.09;49.08
67547;HTU21D;54381;53.516;49.424;2022-09-12T12:00:43;14.85;50.16
67547;HTU21D;54381;53.516;49.424;2022-09-12T12:03:42;14.78;51.68
67547;HTU21D;54381;53.516;49.424;2022-09-12T12:06:21;14.69;51.96
67547;HTU21D;54381;53.516;49.424;2022-09-12T12:08:54;14.78;51.63
67547;HTU21D;54381;53.516;49.424;2022-09-12T12:11:34;14.93;52.28
67547;HTU21D;54381;53.516;49.424;2022-09-12T12:14:21;14.95;50.43
67547;HTU21D;54381;53.516;49.424;2022-09-12T12:16:54;14.89;50.24
67547;HTU21D;54381;53.516;49.424;2022-09-12T12:19:36;14.73;52.38
67547;HTU21D;54381;53.516;49.424;2022-09-12T12:22:15;14.60;52.42
67547;HTU21D;54381;53.516;49.424;2022-09-12T12:27:50;14.38;53.30
67547;HTU21D;54381;53.516;49.424;2022-09-12T12:35:43;14.11;55.07
67547;HTU21D;54381;53.516;49.424;2022-09-12T12:38:37;14.09;55.05
67547;HTU21D;54381;53.516;49.424;2022-09-12T12:43:53;14.19;54.16
67547;HTU21D;54381;53.516;49.424;2022-09-12T12:46:27;14.14;54.39
67547;HTU21D;54381;53.516;49.424;2022-09-12T12:51:46;14.13;54.87
67547;HTU21D;54381;53.516;49.424;2022-09-12T12:57:17;14.11;54.41
67547;HTU21D;54381;53.516;49.424;2022-09-12T13:02:36;14.17;54.01
67547;HTU21D;54381;53.516;49.424;2022-09-12T13:05:19;14.22;54.08
67547;HTU21D;54381;53.516;49.424;2022-09-12T13:08:55;14.27;54.00
67547;HTU21D;54381;53.516;49.424;2022-09-12T13:13:59;14.27;54.30
67547;HTU21D;54381;53.516;49.424;2022-09-12T13:16:39;14.21;54.78
67547;HTU21D;54381;53.516;49.424;2022-09-12T13:19:27;14.22;55.36
67547;HTU21D;54381;53.516;49.424;2022-09-12T13:22:02;14.15;56.10
67547;HTU21D;54381;53.516;49.424;2022-09-12T13:24:41;14.06;56.72
67547;HTU21D;54381;53.516;49.424;2022-09-12T13:27:23;13.89;58.08
67547;HTU21D;54381;53.516;49.424;2022-09-12T13:30:06;13.83;57.84
67547;HTU21D;54381;53.516;49.424;2022-09-12T13:32:38;13.79;58.24
67547;HTU21D;54381;53.516;49.424;2022-09-12T13:38:07;13.77;58.70
67547;HTU21D;54381;53.516;49.424;2022-09-12T13:41:04;13.74;58.96
67547;HTU21D;54381;53.516;49.424;2022-09-12T13:43:42;13.67;59.22
67547;HTU21D;54381;53.516;49.424;2022-09-12T13:46:24;13.64;59.51
67547;HTU21D;54381;53.516;49.424;2022-09-12T13:48:59;13.64;59.07
67547;HTU21D;54381;53.516;49.424;2022-09-12T13:51:31;13.63;59.58
67547;HTU21D;54381;53.516;49.424;2022-09-12T13:54:03;13.65;59.81
67547;HTU21D;54381;53.516;49.424;2022-09-12T13:56:46;13.64;59.78
67547;HTU21D;54381;53.516;49.424;2022-09-12T13:59:17;13.59;59.96
67547;HTU21D;54381;53.516;49.424;2022-09-12T14:01:49;13.53;60.22
67547;HTU21D;54381;53.516;49.424;2022-09-12T14:04:23;13.52;60.86
67547;HTU21D;54381;53.516;49.424;2022-09-12T14:07:22;13.51;60.50
67547;HTU21D;54381;53.516;49.424;2022-09-12T14:09:58;13.44;60.74
67547;HTU21D;54381;53.516;49.424;2022-09-12T14:12:36;13.40;61.18
67547;HTU21D;54381;53.516;49.424;2022-09-12T14:15:19;13.38;61.35
67547;HTU21D;54381;53.516;49.424;2022-09-12T14:17:56;13.36;61.79
67547;HTU21D;54381;53.516;49.424;2022-09-12T14:20:35;13.36;61.47
67547;HTU21D;54381;53.516;49.424;2022-09-12T14:23:28;13.32;62.33
67547;HTU21D;54381;53.516;49.424;2022-09-12T14:26:02;13.27;62.34
67547;HTU21D;54381;53.516;49.424;2022-09-12T14:28:38;13.25;62.94
67547;HTU21D;54381;53.516;49.424;2022-09-12T14:33:50;13.19;63.34
67547;HTU21D;54381;53.516;49.424;2022-09-12T14:36:26;13.12;63.69
67547;HTU21D;54381;53.516;49.424;2022-09-12T14:39:05;13.12;64.07
67547;HTU21D;54381;53.516;49.424;2022-09-12T14:41:39;13.08;64.58
67547;HTU21D;54381;53.516;49.424;2022-09-12T14:44:25;13.04;64.48
67547;HTU21D;54381;53.516;49.424;2022-09-12T14:47:09;13.01;64.61
67547;HTU21D;54381;53.516;49.424;2022-09-12T14:49:41;13.01;65.24
67547;HTU21D;54381;53.516;49.424;2022-09-12T14:55:18;12.93;65.53
67547;HTU21D;54381;53.516;49.424;2022-09-12T14:58:11;12.90;65.69
67547;HTU21D;54381;53.516;49.424;2022-09-12T15:06:34;12.81;67.01
67547;HTU21D;54381;53.516;49.424;2022-09-12T15:09:12;12.82;67.11
67547;HTU21D;54381;53.516;49.424;2022-09-12T15:11:44;12.79;66.59
67547;HTU21D;54381;53.516;49.424;2022-09-12T15:14:15;12.75;67.02
67547;HTU21D;54381;53.516;49.424;2022-09-12T15:16:47;12.76;67.04
67547;HTU21D;54381;53.516;49.424;2022-09-12T15:19:18;12.71;67.76
67547;HTU21D;54381;53.516;49.424;2022-09-12T15:21:51;12.70;67.36
67547;HTU21D;54381;53.516;49.424;2022-09-12T15:24:23;12.70;67.46
67547;HTU21D;54381;53.516;49.424;2022-09-12T15:26:54;12.65;67.99
67547;HTU21D;54381;53.516;49.424;2022-09-12T15:29:26;12.62;67.62
67547;HTU21D;54381;53.516;49.424;2022-09-12T15:31:57;12.59;68.41
67547;HTU21D;54381;53.516;49.424;2022-09-12T15:34:29;12.57;68.46
67547;HTU21D;54381;53.516;49.424;2022-09-12T15:37:00;12.55;68.79
67547;HTU21D;54381;53.516;49.424;2022-09-12T15:39:31;12.56;69.04
67547;HTU21D;54381;53.516;49.424;2022-09-12T15:42:03;12.56;69.59
67547;HTU21D;54381;53.516;49.424;2022-09-12T15:44:35;12.55;68.84
67547;HTU21D;54381;53.516;49.424;2022-09-12T15:47:10;12.53;69.68
67547;HTU21D;54381;53.516;49.424;2022-09-12T15:49:42;12.51;69.76
67547;HTU21D;54381;53.516;49.424;2022-09-12T15:52:15;12.48;69.56
67547;HTU21D;54381;53.516;49.424;2022-09-12T15:54:47;12.42;69.90
67547;HTU21D;54381;53.516;49.424;2022-09-12T15:57:18;12.40;70.34
67547;HTU21D;54381;53.516;49.424;2022-09-12T15:59:50;12.37;70.26
67547;HTU21D;54381;53.516;49.424;2022-09-12T16:02:21;12.32;70.32
67547;HTU21D;54381;53.516;49.424;2022-09-12T16:04:52;12.27;70.35
67547;HTU21D;54381;53.516;49.424;2022-09-12T16:07:28;12.25;70.62
67547;HTU21D;54381;53.516;49.424;2022-09-12T16:10:00;12.21;70.81
67547;HTU21D;54381;53.516;49.424;2022-09-12T16:12:31;12.19;71.13
67547;HTU21D;54381;53.516;49.424;2022-09-12T16:15:03;12.15;71.49
67547;HTU21D;54381;53.516;49.424;2022-09-12T16:17:35;12.16;72.10
67547;HTU21D;54381;53.516;49.424;2022-09-12T16:20:07;12.19;72.29
67547;HTU21D;54381;53.516;49.424;2022-09-12T16:22:38;12.17;71.37
67547;HTU21D;54381;53.516;49.424;2022-09-12T16:25:10;12.12;71.71
67547;HTU21D;54381;53.516;49.424;2022-09-12T16:27:42;12.07;72.11
67547;HTU21D;54381;53.516;49.424;2022-09-12T16:30:13;12.08;71.81
67547;HTU21D;54381;53.516;49.424;2022-09-12T16:32:45;12.14;72.04
67547;HTU21D;54381;53.516;49.424;2022-09-12T16:35:17;12.16;71.87
67547;HTU21D;54381;53.516;49.424;2022-09-12T16:37:48;12.16;71.93
67547;HTU21D;54381;53.516;49.424;2022-09-12T16:40:20;12.14;71.46
67547;HTU21D;54381;53.516;49.424;2022-09-12T16:42:53;12.18;72.41
67547;HTU21D;54381;53.516;49.424;2022-09-12T16:45:25;12.16;72.72
67547;HTU21D;54381;53.516;49.424;2022-09-12T16:47:56;12.16;72.96
67547;HTU21D;54381;53.516;49.424;2022-09-12T16:50:27;12.13;71.64
67547;HTU21D;54381;53.516;49.424;2022-09-12T16:52:59;12.10;71.99
67547;HTU21D;54381;53.516;49.424;2022-09-12T16:55:31;12.04;72.62
67547;HTU21D;54381;53.516;49.424;2022-09-12T16:58:02;12.02;72.50
67547;HTU21D;54381;53.516;49.424;2022-09-12T17:00:34;11.98;72.09
67547;HTU21D;54381;53.516;49.424;2022-09-12T17:03:05;11.96;72.27
67547;HTU21D;54381;53.516;49.424;2022-09-12T17:05:37;11.96;72.84
67547;HTU21D;54381;53.516;49.424;2022-09-12T17:08:09;11.94;72.56
67547;HTU21D;54381;53.516;49.424;2022-09-12T17:10:40;11.92;72.67
67547;HTU21D;54381;53.516;49.424;2022-09-12T17:13:12;11.91;72.90
67547;HTU21D;54381;53.516;49.424;2022-09-12T17:15:43;11.96;73.43
67547;HTU21D;54381;53.516;49.424;2022-09-12T17:18:15;11.93;73.25
67547;HTU21D;54381;53.516;49.424;2022-09-12T17:20:47;11.93;73.35
67547;HTU21D;54381;53.516;49.424;2022-09-12T17:23:18;11.92;73.91
67547;HTU21D;54381;53.516;49.424;2022-09-12T17:25:50;11.90;73.33
67547;HTU21D;54381;53.516;49.424;2022-09-12T17:28:22;11.91;73.54
67547;HTU21D;54381;53.516;49.424;2022-09-12T17:30:58;11.86;73.38
67547;HTU21D;54381;53.516;49.424;2022-09-12T17:33:30;11.86;73.56
67547;HTU21D;54381;53.516;49.424;2022-09-12T17:36:04;11.86;73.54
67547;HTU21D;54381;53.516;49.424;2022-09-12T17:38:37;11.78;73.72
67547;HTU21D;54381;53.516;49.424;2022-09-12T17:41:16;11.71;74.09
67547;HTU21D;54381;53.516;49.424;2022-09-12T17:43:50;11.67;74.45
67547;HTU21D;54381;53.516;49.424;2022-09-12T17:46:24;11.63;74.61
67547;HTU21D;54381;53.516;49.424;2022-09-12T17:48:58;11.61;74.85
67547;HTU21D;54381;53.516;49.424;2022-09-12T17:51:31;11.60;74.86
67547;HTU21D;54381;53.516;49.424;2022-09-12T17:54:11;11.61;74.64
67547;HTU21D;54381;53.516;49.424;2022-09-12T17:56:44;11.60;74.70
67547;HTU21D;54381;53.516;49.424;2022-09-12T17:59:19;11.59;75.01
67547;HTU21D;54381;53.516;49.424;2022-09-12T18:01:51;11.61;74.57
67547;HTU21D;54381;53.516;49.424;2022-09-12T18:04:42;11.57;75.24
67547;HTU21D;54381;53.516;49.424;2022-09-12T18:07:19;11.59;74.46
67547;HTU21D;54381;53.516;49.424;2022-09-12T18:09:50;11.57;74.35
67547;HTU21D;54381;53.516;49.424;2022-09-12T18:12:22;11.57;74.71
67547;HTU21D;54381;53.516;49.424;2022-09-12T18:14:54;11.58;74.66
67547;HTU21D;54381;53.516;49.424;2022-09-12T18:17:25;11.56;75.08